This is the latest recevied weather packets stored in our database for station/object WL7CLI. If no packets are shown the sender has not sent any weather packets the latest 1 day(s).
| Time | Temp. | Humidity | Pressure | Rain* | Wind** | Luminosity | Snow |
|---|---|---|---|---|---|---|---|
| 1836274299 | 17.78° C | 32% | 1015.8 hPa | 0 mm | - | - | - |
| 1836274155 | 17.78° C | 33% | 1015.8 hPa | 0 mm | - | - | - |
| 1778035099 | 12.22° C | 37% | 1012.3 hPa | 0 mm | - | - | - |
| 1778034975 | 12.22° C | 38% | 1012.2 hPa | 0 mm | - | - | - |
| 1778034504 | 12.22° C | 38% | 1011.9 hPa | 0 mm | 1.79 m/s, 288° | - | - |
| 1778033899 | 12.22° C | 37% | 1012.1 hPa | 0 mm | - | - | - |
| 1778033775 | 12.22° C | 37% | 1012 hPa | 0 mm | - | - | - |
| 1778032704 | 12.78° C | 37% | 1011.7 hPa | 0 mm | 0 m/s | - | - |
| 1778032698 | 12.78° C | 37% | 1011.8 hPa | 0 mm | - | - | - |
| 1778032571 | 12.78° C | 36% | 1011.7 hPa | 0 mm | - | - | - |
| 1778031498 | 12.78° C | 36% | 1011.7 hPa | 0 mm | - | - | - |
| 1778031373 | 12.78° C | 35% | 1011.6 hPa | 0 mm | - | - | - |
| 1778030904 | 12.78° C | 36% | 1011.4 hPa | 0 mm | 0 m/s | - | - |
| 1778030299 | 12.78° C | 36% | 1011.5 hPa | 0 mm | - | - | - |
| 1778030173 | 12.78° C | 36% | 1011.4 hPa | 0 mm | - | - | - |
| 1778029104 | 13.33° C | 34% | 1010.8 hPa | 0 mm | 0.89 m/s, 335° | - | - |
| 1778029099 | 13.33° C | 34% | 1011 hPa | 0 mm | - | - | - |
| 1778028974 | 13.33° C | 34% | 1011 hPa | 0 mm | - | - | - |
| 1778027899 | 13.33° C | 33% | 1010.7 hPa | 0 mm | - | - | - |
| 1778027774 | 13.33° C | 35% | 1010.8 hPa | 0 mm | - | - | - |
| 1778027304 | 13.33° C | 34% | 1010.4 hPa | 0 mm | 0.89 m/s, 257° | - | - |
| 1778026699 | 13.89° C | 33% | 1010.6 hPa | 0 mm | - | - | - |
| 1778026572 | 13.89° C | 33% | 1010.6 hPa | 0 mm | - | - | - |
| 1778025504 | 13.89° C | 34% | 1010.4 hPa | 0 mm | 2.68 m/s, 272° | - | - |
| 1778025499 | 13.89° C | 34% | 1010.6 hPa | 0 mm | - | - | - |
* Rain latest hour (hover to see other rain measurements)
** Current wind speed in m/s (hover to see current wind gust speed)